createdAt,value
2023-04-18T00:02:38.545Z,79.17
2023-04-18T00:06:00.877Z,79.26
2023-04-18T00:09:22.569Z,78.86
2023-04-18T00:12:44.529Z,78.48
2023-04-18T00:16:08.055Z,78.40
2023-04-18T00:19:31.479Z,78.54
2023-04-18T00:22:55.070Z,78.51
2023-04-18T00:26:17.826Z,78.38
2023-04-18T00:29:42.558Z,78.43
2023-04-18T00:33:04.481Z,78.32
2023-04-18T00:36:28.180Z,78.40
2023-04-18T00:39:49.691Z,78.66
2023-04-18T00:43:10.945Z,78.83
2023-04-18T00:46:35.448Z,79.13
2023-04-18T00:49:57.111Z,78.84
2023-04-18T00:53:21.152Z,78.84
2023-04-18T00:56:43.085Z,78.83
2023-04-18T01:00:09.334Z,78.85
2023-04-18T01:03:33.044Z,78.47
2023-04-18T01:06:55.202Z,78.60
2023-04-18T01:10:18.862Z,78.23
2023-04-18T01:13:40.314Z,78.59
2023-04-18T01:17:02.186Z,78.12
2023-04-18T01:20:26.133Z,78.19
2023-04-18T01:23:48.851Z,77.78
2023-04-18T01:27:14.443Z,77.71
2023-04-18T01:30:35.910Z,77.85
2023-04-18T01:33:57.708Z,77.56
2023-04-18T01:37:19.532Z,77.58
2023-04-18T01:40:41.010Z,77.79
2023-04-18T01:44:03.657Z,77.83
2023-04-18T01:47:25.275Z,77.87
2023-04-18T01:50:47.047Z,78.41
2023-04-18T01:54:08.485Z,78.49
2023-04-18T01:57:30.482Z,78.16
2023-04-18T02:00:54.741Z,78.59
2023-04-18T02:04:16.685Z,78.50
2023-04-18T02:07:42.745Z,78.94
2023-04-18T02:11:04.730Z,78.99
2023-04-18T02:14:27.778Z,79.30
2023-04-18T02:17:51.487Z,79.66
2023-04-18T02:21:13.425Z,80.04
2023-04-18T02:24:35.721Z,80.50
2023-04-18T02:27:58.173Z,80.84
2023-04-18T02:31:19.649Z,81.09
2023-04-18T02:34:42.373Z,81.65
2023-04-18T02:38:04.097Z,82.29
2023-04-18T02:41:25.919Z,82.60
2023-04-18T02:44:48.712Z,82.77
2023-04-18T02:48:10.999Z,83.24
2023-04-18T02:51:34.547Z,83.49
2023-04-18T02:54:56.917Z,84.20
2023-04-18T02:58:22.781Z,84.56
2023-04-18T03:02:05.392Z,84.72
2023-04-18T03:05:28.793Z,84.91
2023-04-18T03:08:55.761Z,84.79
2023-04-18T03:12:18.621Z,84.78
2023-04-18T03:15:41.300Z,84.95
2023-04-18T03:19:05.318Z,84.74
2023-04-18T03:22:28.805Z,85.09
2023-04-18T03:25:53.611Z,85.29
2023-04-18T03:29:16.184Z,84.96
2023-04-18T03:32:42.220Z,85.55
2023-04-18T03:36:04.448Z,85.31
2023-04-18T03:39:26.033Z,85.26
2023-04-18T03:42:50.508Z,85.21
2023-04-18T03:46:12.059Z,85.25
2023-04-18T03:49:33.923Z,85.13
2023-04-18T03:52:57.851Z,84.86
2023-04-18T03:56:19.799Z,84.61
2023-04-18T03:59:51.104Z,84.86
2023-04-18T04:03:13.716Z,84.94
2023-04-18T04:06:36.454Z,84.29
2023-04-18T04:09:58.610Z,84.25
2023-04-18T04:13:20.557Z,83.78
2023-04-18T04:16:45.207Z,83.70
2023-04-18T04:20:10.964Z,83.73
2023-04-18T04:23:33.176Z,83.77
2023-04-18T04:26:56.345Z,83.72
2023-04-18T04:30:19.751Z,83.60
2023-04-18T04:33:43.675Z,83.45
2023-04-18T04:37:13.983Z,83.35
2023-04-18T04:40:47.519Z,83.37
2023-04-18T04:44:09.626Z,82.89
2023-04-18T04:47:31.966Z,82.86
2023-04-18T04:50:56.692Z,82.64
2023-04-18T04:54:18.109Z,82.73
2023-04-18T04:57:40.394Z,82.24
2023-04-18T05:01:18.015Z,82.47
2023-04-18T05:04:40.201Z,82.39
2023-04-18T05:08:03.711Z,82.37
2023-04-18T05:11:25.945Z,82.18
2023-04-18T05:14:47.287Z,81.89
2023-04-18T05:18:09.026Z,81.90
2023-04-18T05:21:31.367Z,81.35
2023-04-18T05:24:54.415Z,81.36
2023-04-18T05:28:16.919Z,81.01
2023-04-18T05:31:38.621Z,80.84
2023-04-18T05:35:00.399Z,80.57
2023-04-18T05:38:22.043Z,80.36
2023-04-18T05:41:45.261Z,80.56
2023-04-18T05:45:07.954Z,80.13
2023-04-18T05:48:29.644Z,80.20
2023-04-18T05:51:52.883Z,80.53
2023-04-18T05:55:14.305Z,80.04
2023-04-18T05:58:37.415Z,79.97
2023-04-18T06:01:59.114Z,79.61
2023-04-18T06:05:20.581Z,79.30
2023-04-18T06:08:42.865Z,78.87
2023-04-18T06:12:05.208Z,79.12
2023-04-18T06:15:29.077Z,78.99
2023-04-18T06:18:50.707Z,77.92
2023-04-18T06:22:12.414Z,77.78
2023-04-18T06:25:34.316Z,78.35
2023-04-18T06:28:56.211Z,77.88
2023-04-18T06:32:19.057Z,77.22
2023-04-18T06:35:41.259Z,77.64
2023-04-18T06:39:03.002Z,76.96
2023-04-18T06:42:24.340Z,77.08
2023-04-18T06:45:46.550Z,76.95
2023-04-18T06:49:09.868Z,77.14
2023-04-18T06:52:31.495Z,77.16
2023-04-18T06:55:53.375Z,77.23
2023-04-18T06:59:15.110Z,77.17
2023-04-18T07:02:38.675Z,77.17
2023-04-18T07:06:02.862Z,76.93
2023-04-18T07:09:24.578Z,76.92
2023-04-18T07:12:47.854Z,76.53
2023-04-18T07:16:10.942Z,76.46
2023-04-18T07:19:33.121Z,76.79
2023-04-18T07:22:55.729Z,76.21
2023-04-18T07:26:17.638Z,75.69
2023-04-18T07:29:39.327Z,76.08
2023-04-18T07:33:01.284Z,75.95
2023-04-18T07:36:22.832Z,75.73
2023-04-18T07:39:45.595Z,75.51
2023-04-18T07:43:07.178Z,75.18
2023-04-18T07:46:28.970Z,75.05
2023-04-18T07:49:51.636Z,74.64
2023-04-18T07:53:13.873Z,74.29
2023-04-18T07:56:36.938Z,74.00
2023-04-18T07:59:58.331Z,74.46
2023-04-18T08:03:20.271Z,74.75
2023-04-18T08:06:42.649Z,74.21
2023-04-18T08:10:04.931Z,74.44
2023-04-18T08:13:28.023Z,74.55
2023-04-18T08:16:49.450Z,74.68
2023-04-18T08:20:12.919Z,74.95
2023-04-18T08:23:59.953Z,74.57
2023-04-18T08:27:21.610Z,74.71
2023-04-18T08:30:48.645Z,75.01
2023-04-18T08:34:10.372Z,75.23
2023-04-18T08:37:35.187Z,74.22
2023-04-18T08:40:57.087Z,75.40
2023-04-18T08:44:19.330Z,75.46
2023-04-18T08:47:42.798Z,76.02
2023-04-18T08:51:05.547Z,74.77
2023-04-18T08:54:30.546Z,73.44
2023-04-18T08:57:54.167Z,73.18
2023-04-18T09:01:17.897Z,73.29
2023-04-18T09:04:43.263Z,73.12
2023-04-18T09:08:24.612Z,73.46
2023-04-18T09:11:46.611Z,72.99
2023-04-18T09:15:14.137Z,72.12
2023-04-18T09:18:35.654Z,72.60
2023-04-18T09:22:04.578Z,72.97
2023-04-18T09:25:29.278Z,72.76
2023-04-18T09:28:54.521Z,72.67
2023-04-18T09:32:25.097Z,72.29
2023-04-18T09:35:47.105Z,72.62
2023-04-18T09:39:10.479Z,72.33
2023-04-18T09:42:37.415Z,72.27
2023-04-18T09:46:01.119Z,72.19
2023-04-18T09:49:23.801Z,72.34
2023-04-18T09:52:46.889Z,72.55
2023-04-18T09:56:14.205Z,72.29
2023-04-18T09:59:42.675Z,71.95
2023-04-18T10:03:08.213Z,71.44
2023-04-18T10:06:30.109Z,71.09
2023-04-18T10:09:53.044Z,71.65
2023-04-18T10:13:16.341Z,71.92
2023-04-18T10:16:39.017Z,71.29
2023-04-18T10:20:10.146Z,71.32
2023-04-18T10:23:36.850Z,71.48
2023-04-18T10:26:59.513Z,70.56
2023-04-18T10:30:54.338Z,71.45
2023-04-18T10:34:19.677Z,70.99
2023-04-18T10:37:51.102Z,70.19
2023-04-18T10:41:18.399Z,70.59
2023-04-18T10:44:40.497Z,70.69
2023-04-18T10:48:27.724Z,71.46
2023-04-18T10:51:51.165Z,71.36
2023-04-18T10:55:16.965Z,70.25
2023-04-18T10:58:42.179Z,70.69
2023-04-18T11:02:12.063Z,70.11
2023-04-18T11:05:35.968Z,69.42
2023-04-18T11:09:11.070Z,70.00
2023-04-18T11:12:33.644Z,69.08
2023-04-18T11:15:56.887Z,68.66
2023-04-18T11:19:23.263Z,68.85
2023-04-18T11:22:50.727Z,68.79
2023-04-18T11:26:14.420Z,69.06
2023-04-18T11:29:36.173Z,68.18
2023-04-18T11:32:57.743Z,68.41
2023-04-18T11:36:19.883Z,68.38
2023-04-18T11:39:44.602Z,68.09
2023-04-18T11:43:08.070Z,69.27
2023-04-18T11:46:39.072Z,67.66
2023-04-18T11:50:02.782Z,67.91
2023-04-18T11:53:34.818Z,67.83
2023-04-18T11:56:57.947Z,67.31
2023-04-18T12:00:22.169Z,67.73
2023-04-18T12:03:45.476Z,67.12
2023-04-18T12:07:07.681Z,66.34
2023-04-18T12:10:30.612Z,65.23
2023-04-18T12:13:57.936Z,65.27
2023-04-18T12:17:19.461Z,64.60
2023-04-18T12:20:46.691Z,64.45
2023-04-18T12:24:16.012Z,64.32
2023-04-18T12:27:52.240Z,63.87
2023-04-18T12:31:15.692Z,63.80
2023-04-18T12:34:37.300Z,63.08
2023-04-18T12:38:00.835Z,63.63
2023-04-18T12:41:22.392Z,63.24
2023-04-18T12:44:45.828Z,63.09
2023-04-18T12:48:09.937Z,63.22
2023-04-18T12:51:32.135Z,62.58
2023-04-18T12:54:56.267Z,62.68
2023-04-18T12:58:20.510Z,62.16
2023-04-18T13:01:42.021Z,62.71
2023-04-18T13:05:05.264Z,62.33
2023-04-18T13:08:26.828Z,61.75
2023-04-18T13:11:49.644Z,61.54
2023-04-18T13:15:12.730Z,62.66
2023-04-18T13:18:34.637Z,61.29
2023-04-18T13:21:58.454Z,59.85
2023-04-18T13:25:19.994Z,61.24
2023-04-18T13:28:42.197Z,60.29
2023-04-18T13:32:03.896Z,59.43
2023-04-18T13:35:25.919Z,60.12
2023-04-18T13:38:49.027Z,58.98
2023-04-18T13:42:11.018Z,58.78
2023-04-18T13:45:32.846Z,58.51
2023-04-18T13:48:54.640Z,58.18
2023-04-18T13:52:17.551Z,58.48
2023-04-18T13:55:40.307Z,57.05
2023-04-18T13:59:02.510Z,57.31
2023-04-18T14:02:24.354Z,57.67
2023-04-18T14:05:45.849Z,58.21
2023-04-18T14:09:07.972Z,58.52
2023-04-18T14:12:31.343Z,57.96
2023-04-18T14:15:53.884Z,58.17
2023-04-18T14:19:16.108Z,58.15
2023-04-18T14:22:37.787Z,57.24
2023-04-18T14:25:59.257Z,57.03
2023-04-18T14:29:22.575Z,56.81
2023-04-18T14:32:44.291Z,56.97
2023-04-18T14:36:07.055Z,56.94
2023-04-18T14:39:28.970Z,57.68
2023-04-18T14:42:50.463Z,55.97
2023-04-18T14:46:14.228Z,55.91
2023-04-18T14:49:35.877Z,54.85
2023-04-18T14:52:57.803Z,55.54
2023-04-18T14:56:21.257Z,54.39
2023-04-18T14:59:43.232Z,53.40
2023-04-18T15:03:08.932Z,54.22
2023-04-18T15:06:32.606Z,54.14
2023-04-18T15:09:54.475Z,54.23
2023-04-18T15:13:15.907Z,54.45
2023-04-18T15:16:39.935Z,53.10
2023-04-18T15:20:07.041Z,53.98
2023-04-18T15:23:28.882Z,53.81
2023-04-18T15:26:50.733Z,53.93
2023-04-18T15:30:13.347Z,54.09
2023-04-18T15:33:34.843Z,53.97
2023-04-18T15:36:58.160Z,54.81
2023-04-18T15:40:20.170Z,54.93
2023-04-18T15:43:42.390Z,55.80
2023-04-18T15:47:04.722Z,56.28
2023-04-18T15:50:26.777Z,55.69
2023-04-18T15:53:50.189Z,56.47
2023-04-18T15:57:12.061Z,56.38
2023-04-18T16:00:33.658Z,56.30
2023-04-18T16:03:55.782Z,56.73
2023-04-18T16:07:17.805Z,56.67
2023-04-18T16:10:41.514Z,57.32
2023-04-18T16:14:03.685Z,56.96
2023-04-18T16:17:25.803Z,56.51
2023-04-18T16:20:48.143Z,56.76
2023-04-18T16:24:10.094Z,57.32
2023-04-18T16:27:33.810Z,57.00
2023-04-18T16:30:55.979Z,57.01
2023-04-18T16:34:17.831Z,57.29
2023-04-18T16:37:40.106Z,57.46
2023-04-18T16:41:01.808Z,57.58
2023-04-18T16:44:25.309Z,57.93
2023-04-18T16:47:46.685Z,58.45
2023-04-18T16:51:08.502Z,57.95
2023-04-18T16:54:30.654Z,58.06
2023-04-18T16:57:52.666Z,58.74
2023-04-18T17:01:15.652Z,58.20
2023-04-18T17:04:37.526Z,58.57
2023-04-18T17:07:58.799Z,58.56
2023-04-18T17:11:20.819Z,58.89
2023-04-18T17:14:42.384Z,59.61
2023-04-18T17:18:06.340Z,60.22
2023-04-18T17:21:27.732Z,59.81
2023-04-18T17:24:49.263Z,59.66
2023-04-18T17:28:11.771Z,59.68
2023-04-18T17:31:34.409Z,59.36
2023-04-18T17:34:57.683Z,59.08
2023-04-18T17:38:19.548Z,58.89
2023-04-18T17:41:41.128Z,58.76
2023-04-18T17:45:02.841Z,57.92
2023-04-18T17:48:24.873Z,57.81
2023-04-18T17:51:48.297Z,57.78
2023-04-18T17:55:10.576Z,57.09
2023-04-18T17:58:32.078Z,56.92
2023-04-18T18:01:53.893Z,57.31
2023-04-18T18:05:16.579Z,56.54
2023-04-18T18:08:40.538Z,56.25
2023-04-18T18:12:02.558Z,55.88
2023-04-18T18:15:24.710Z,55.72
2023-04-18T18:18:46.533Z,54.61
2023-04-18T18:22:08.541Z,55.12
2023-04-18T18:25:32.174Z,54.88
2023-04-18T18:28:54.715Z,55.53
2023-04-18T18:32:16.790Z,55.41
2023-04-18T18:35:38.437Z,55.70
2023-04-18T18:39:00.070Z,55.68
2023-04-18T18:42:22.951Z,55.81
2023-04-18T18:45:44.718Z,56.19
2023-04-18T18:49:06.210Z,56.34
2023-04-18T18:52:29.772Z,56.40
2023-04-18T18:55:51.458Z,56.65
2023-04-18T18:59:15.844Z,56.99
2023-04-18T19:02:38.114Z,57.89
2023-04-18T19:06:03.907Z,59.06
2023-04-18T19:09:25.702Z,58.84
2023-04-18T19:12:47.363Z,59.28
2023-04-18T19:16:10.506Z,59.84
2023-04-18T19:19:32.058Z,60.32
2023-04-18T19:22:53.899Z,60.58
2023-04-18T19:26:15.640Z,60.64
2023-04-18T19:29:37.553Z,61.03
2023-04-18T19:33:00.727Z,61.30
2023-04-18T19:36:22.702Z,61.32
2023-04-18T19:39:44.438Z,61.66
2023-04-18T19:43:06.481Z,61.19
2023-04-18T19:46:28.400Z,61.86
2023-04-18T19:49:51.723Z,61.71
2023-04-18T19:53:15.516Z,62.36
2023-04-18T19:56:37.852Z,62.32
2023-04-18T19:59:59.838Z,62.24
2023-04-18T20:03:21.942Z,62.67
2023-04-18T20:06:45.268Z,62.70
2023-04-18T20:10:08.891Z,63.16
2023-04-18T20:13:30.929Z,63.41
2023-04-18T20:16:52.447Z,63.76
2023-04-18T20:20:14.223Z,64.05
2023-04-18T20:23:37.667Z,64.72
2023-04-18T20:27:00.602Z,65.06
2023-04-18T20:30:22.647Z,65.40
2023-04-18T20:33:44.694Z,65.46
2023-04-18T20:37:07.565Z,65.31
2023-04-18T20:40:31.025Z,65.71
2023-04-18T20:43:53.722Z,65.88
2023-04-18T20:47:16.098Z,65.28
2023-04-18T20:50:40.009Z,64.96
2023-04-18T20:54:01.618Z,64.85
2023-04-18T20:57:24.770Z,64.78
2023-04-18T21:00:46.687Z,64.05
2023-04-18T21:04:09.569Z,63.89
2023-04-18T21:07:32.127Z,62.67
2023-04-18T21:10:54.047Z,61.89
2023-04-18T21:14:17.656Z,62.28
2023-04-18T21:17:39.336Z,62.04
2023-04-18T21:21:01.298Z,61.87
2023-04-18T21:24:22.812Z,61.52
2023-04-18T21:27:44.601Z,61.17
2023-04-18T21:31:08.196Z,61.37
2023-04-18T21:34:30.110Z,61.28
2023-04-18T21:37:52.094Z,61.20
2023-04-18T21:41:15.802Z,60.85
2023-04-18T21:44:37.969Z,61.30
2023-04-18T21:48:00.954Z,61.13
2023-04-18T21:51:22.440Z,61.52
2023-04-18T21:54:44.226Z,61.22
2023-04-18T21:58:06.264Z,61.18
2023-04-18T22:01:27.964Z,61.34
2023-04-18T22:04:51.067Z,61.37
2023-04-18T22:08:12.481Z,60.91
2023-04-18T22:11:33.904Z,60.67
2023-04-18T22:14:56.711Z,60.25
2023-04-18T22:18:19.728Z,60.62
2023-04-18T22:21:42.723Z,60.81
2023-04-18T22:25:04.994Z,60.90
2023-04-18T22:28:28.025Z,62.03
2023-04-18T22:31:49.988Z,60.44
2023-04-18T22:35:11.757Z,60.08
2023-04-18T22:38:35.551Z,60.24
2023-04-18T22:41:57.179Z,60.26
2023-04-18T22:45:19.578Z,60.01
2023-04-18T22:48:40.882Z,59.73
2023-04-18T22:52:02.595Z,60.09
2023-04-18T22:55:25.734Z,59.51
2023-04-18T22:58:47.291Z,59.08
2023-04-18T23:02:08.969Z,58.49
2023-04-18T23:05:31.492Z,58.57
2023-04-18T23:08:53.210Z,57.71
2023-04-18T23:12:18.394Z,57.57
2023-04-18T23:15:40.159Z,57.10
2023-04-18T23:19:01.942Z,56.75
2023-04-18T23:22:24.456Z,57.06
2023-04-18T23:25:46.207Z,57.11
2023-04-18T23:29:08.988Z,56.76
2023-04-18T23:32:30.584Z,56.46
2023-04-18T23:35:51.964Z,56.87
2023-04-18T23:39:13.467Z,56.35
2023-04-18T23:42:35.934Z,56.45
2023-04-18T23:45:59.116Z,56.51
2023-04-18T23:49:20.493Z,56.34
2023-04-18T23:52:42.394Z,56.36
2023-04-18T23:56:04.036Z,56.76
2023-04-18T23:59:25.779Z,57.06
